KDMO

Sedalia Regional Airport

Sedalia, Missouri, USA
METAR KDMO 181953Z AUTO 24010KT 10SM CLR 11/05 A3004 RMK AO2 SLP174 T01110050
Observed Flight Rules
Dec-18 @ 19:53 UTC (21 minutes ago) Visual Flight Rules
Wind Visibility Clouds
240° at 10 knots 10 miles
  • Clear skies
Temperatures Readings
Current 11°C / 52°F
Dewpoint 5°C / 41°F
Humidity 67%
Altimeter 30.04" Hg
Pressure 1017.4 hPa
Elevation 274
METAR KDMO 181953Z AUTO 24010KT 10SM CLR 11/05 A3004 RMK AO2 SLP174 T01110050
Observed Flight Rules
Dec-18 @ 19:53 UTC
(21 minutes ago)
VFR
Wind Visibility
240° at 10 knots 10 miles
Clouds
  • Clear skies
Temperature Dewpoint
11°C / 52°F 5°C / 41°F
Humidity Altimeter Pressure
67% 30.04" Hg 1017.4 hPa